createdAt,value
2018-11-12T00:00:30.680Z,995.92
2018-11-12T00:01:28.399Z,995.98
2018-11-12T00:02:26.129Z,996.06
2018-11-12T00:03:22.860Z,995.97
2018-11-12T00:04:23.855Z,996.09
2018-11-12T00:05:21.679Z,995.92
2018-11-12T00:06:18.315Z,996.03
2018-11-12T00:07:19.124Z,996.01
2018-11-12T00:08:16.646Z,995.97
2018-11-12T00:09:15.688Z,995.97
2018-11-12T00:10:13.601Z,996.03
2018-11-12T00:11:11.661Z,996.01
2018-11-12T00:12:08.405Z,995.95
2018-11-12T00:13:11.515Z,995.88
2018-11-12T00:14:10.554Z,995.9
2018-11-12T00:15:20.342Z,995.87
2018-11-12T00:16:21.549Z,995.85
2018-11-12T00:17:18.654Z,995.87
2018-11-12T00:18:18.184Z,995.93
2018-11-12T00:19:14.785Z,996.06
2018-11-12T00:20:19.062Z,996.03
2018-11-12T00:21:20.539Z,996.1
2018-11-12T00:22:19.414Z,996.1
2018-11-12T00:23:20.921Z,996.09
2018-11-12T00:24:19.860Z,996.1
2018-11-12T00:25:17.397Z,996.13
2018-11-12T00:26:13.460Z,996.12
2018-11-12T00:27:10.687Z,996.27
2018-11-12T00:28:07.931Z,996.27
2018-11-12T00:29:05.317Z,996.3
2018-11-12T00:30:06.469Z,996.3
2018-11-12T00:31:03.933Z,996.28
2018-11-12T00:32:00.565Z,996.33
2018-11-12T00:32:58.451Z,996.34
2018-11-12T00:34:06.627Z,996.39
2018-11-12T00:35:04.097Z,996.34
2018-11-12T00:36:08.772Z,996.43
2018-11-12T00:37:07.558Z,996.33
2018-11-12T00:38:06.532Z,996.34
2018-11-12T00:39:06.922Z,996.34
2018-11-12T00:40:05.538Z,996.33
2018-11-12T00:41:07.841Z,996.51
2018-11-12T00:42:08.745Z,996.42
2018-11-12T00:43:10.047Z,996.49
2018-11-12T00:44:14.259Z,996.51
2018-11-12T00:45:11.278Z,996.39
2018-11-12T00:46:12.960Z,996.52
2018-11-12T00:47:19.586Z,996.55
2018-11-12T00:48:16.725Z,996.49
2018-11-12T00:49:14.387Z,996.43
2018-11-12T00:50:12.374Z,996.52
2018-11-12T00:51:16.056Z,996.48
2018-11-12T00:52:16.191Z,996.48
2018-11-12T00:53:13.557Z,996.54
2018-11-12T00:54:15.931Z,996.45
2018-11-12T00:55:14.790Z,996.33
2018-11-12T00:56:20.828Z,996.34
2018-11-12T00:57:23.460Z,996.21
2018-11-12T00:58:27.599Z,996.18
2018-11-12T00:59:25.709Z,996.08
2018-11-12T01:00:23.657Z,996.17
2018-11-12T01:01:21.796Z,996.17
2018-11-12T01:02:22.226Z,996.17
2018-11-12T01:03:24.471Z,996.11
2018-11-12T01:04:20.928Z,996.17
2018-11-12T01:05:18.032Z,996.06
2018-11-12T01:06:26.503Z,996.09
2018-11-12T01:07:29.632Z,996.05
2018-11-12T01:08:31.790Z,995.97
2018-11-12T01:09:34.070Z,996.05
2018-11-12T01:10:35.202Z,996.06
2018-11-12T01:11:31.702Z,996.09
2018-11-12T01:12:28.875Z,996
2018-11-12T01:13:25.504Z,996.02
2018-11-12T01:14:23.557Z,996.02
2018-11-12T01:15:20.468Z,995.87
2018-11-12T01:16:22.192Z,995.86
2018-11-12T01:17:20.019Z,995.77
2018-11-12T01:18:20.980Z,995.75
2018-11-12T01:19:23.228Z,995.78
2018-11-12T01:20:20.983Z,995.78
2018-11-12T01:21:18.145Z,995.83
2018-11-12T01:22:16.427Z,995.78
2018-11-12T01:23:17.187Z,995.81
2018-11-12T01:24:19.028Z,995.94
2018-11-12T01:25:18.225Z,995.99
2018-11-12T01:26:17.990Z,995.99
2018-11-12T01:27:14.972Z,996.08
2018-11-12T01:28:18.120Z,996.08
2018-11-12T01:29:15.892Z,996.08
2018-11-12T01:30:13.498Z,996.06
2018-11-12T01:31:18.524Z,996.09
2018-11-12T01:32:18.238Z,996.15
2018-11-12T01:33:16.663Z,996.21
2018-11-12T01:34:13.155Z,996.23
2018-11-12T01:35:14.294Z,996.21
2018-11-12T01:36:11.152Z,996.18
2018-11-12T01:37:09.438Z,996.12
2018-11-12T01:38:05.820Z,996.18
2018-11-12T01:39:06.516Z,996.26
2018-11-12T01:40:06.029Z,996.3
2018-11-12T01:41:03.538Z,996.27
2018-11-12T01:42:15.594Z,996.37
2018-11-12T01:43:15.128Z,996.37
2018-11-12T01:44:13.020Z,996.36
2018-11-12T01:45:16.277Z,996.33
2018-11-12T01:46:13.804Z,996.33
2018-11-12T01:47:28.130Z,996.42
2018-11-12T01:48:26.289Z,996.39
2018-11-12T01:49:23.691Z,996.35
2018-11-12T01:50:30.948Z,996.29
2018-11-12T01:51:32.556Z,996.3
2018-11-12T01:52:30.452Z,996.35
2018-11-12T01:53:30.315Z,996.3
2018-11-12T01:54:28.415Z,996.37
2018-11-12T01:55:28.306Z,996.35
2018-11-12T01:56:25.413Z,996.3
2018-11-12T01:57:22.058Z,996.29
2018-11-12T01:58:19.276Z,996.21
2018-11-12T01:59:15.705Z,996.2
2018-11-12T02:00:14.031Z,996.17
2018-11-12T02:01:10.568Z,996.18
2018-11-12T02:02:07.985Z,996.15
2018-11-12T02:03:06.720Z,996.26
2018-11-12T02:04:21.788Z,996.2
2018-11-12T02:05:21.786Z,996.32
2018-11-12T02:06:19.458Z,996.27
2018-11-12T02:07:16.154Z,996.4
2018-11-12T02:08:15.570Z,996.36
2018-11-12T02:09:12.582Z,996.38
2018-11-12T02:10:19.701Z,996.38
2018-11-12T02:11:16.941Z,996.38
2018-11-12T02:12:17.317Z,996.24
2018-11-12T02:13:15.689Z,996.21
2018-11-12T02:14:12.807Z,996.27
2018-11-12T02:15:11.221Z,996.26
2018-11-12T02:16:08.027Z,996.18
2018-11-12T02:17:07.205Z,996.18
2018-11-12T02:18:06.960Z,996.18
2018-11-12T02:19:06.412Z,996.15
2018-11-12T02:20:07.498Z,996.11
2018-11-12T02:21:06.158Z,996.04
2018-11-12T02:22:03.376Z,996.01
2018-11-12T02:23:00.445Z,996.01
2018-11-12T02:23:58.321Z,996.01
2018-11-12T02:24:54.864Z,995.95
2018-11-12T02:25:57.288Z,995.83
2018-11-12T02:26:54.071Z,995.82
2018-11-12T02:27:50.471Z,995.77
2018-11-12T02:28:48.385Z,995.7
2018-11-12T02:29:45.458Z,995.79
2018-11-12T02:30:43.205Z,995.82
2018-11-12T02:31:39.750Z,995.73
2018-11-12T02:32:36.875Z,995.65
2018-11-12T02:33:34.305Z,995.61
2018-11-12T02:34:32.195Z,995.56
2018-11-12T02:35:38.036Z,995.65
2018-11-12T02:36:34.375Z,995.68
2018-11-12T02:37:30.867Z,995.71
2018-11-12T02:38:27.860Z,995.54
2018-11-12T02:39:30.032Z,995.73
2018-11-12T02:40:27.442Z,995.67
2018-11-12T02:41:25.240Z,995.65
2018-11-12T02:42:28.150Z,995.68
2018-11-12T02:43:25.308Z,995.56
2018-11-12T02:44:23.798Z,995.65
2018-11-12T02:45:39.021Z,995.65
2018-11-12T02:46:35.903Z,995.73
2018-11-12T02:47:32.151Z,995.61
2018-11-12T02:48:30.922Z,995.6
2018-11-12T02:49:32.934Z,995.65
2018-11-12T02:50:30.401Z,995.55
2018-11-12T02:51:27.089Z,995.52
2018-11-12T02:52:31.017Z,995.5
2018-11-12T02:53:27.513Z,995.49
2018-11-12T02:54:25.339Z,995.52
2018-11-12T02:55:28.050Z,995.5
2018-11-12T02:56:26.053Z,995.53
2018-11-12T02:57:23.224Z,995.5
2018-11-12T02:58:26.834Z,995.43
2018-11-12T02:59:24.012Z,995.49
2018-11-12T03:00:21.092Z,995.56
2018-11-12T03:01:24.235Z,995.61
2018-11-12T03:02:24.528Z,995.53
2018-11-12T03:03:28.351Z,995.61
2018-11-12T03:04:24.653Z,995.64
2018-11-12T03:05:23.059Z,995.6
2018-11-12T03:06:22.672Z,995.65
2018-11-12T03:07:21.802Z,995.61
2018-11-12T03:08:18.205Z,995.6
2018-11-12T03:09:15.018Z,995.68
2018-11-12T03:10:14.341Z,995.7
2018-11-12T03:11:12.007Z,995.71
2018-11-12T03:12:09.764Z,995.74
2018-11-12T03:13:08.787Z,995.7
2018-11-12T03:14:06.604Z,995.71
2018-11-12T03:15:09.860Z,995.73
2018-11-12T03:16:08.248Z,995.74
2018-11-12T03:17:06.953Z,995.68
2018-11-12T03:18:03.946Z,995.67
2018-11-12T03:19:04.090Z,995.64
2018-11-12T03:20:00.356Z,995.73
2018-11-12T03:20:56.984Z,995.68
2018-11-12T03:22:05.531Z,995.67
2018-11-12T03:23:13.728Z,995.7
2018-11-12T03:24:16.030Z,995.68
2018-11-12T03:25:12.721Z,995.67
2018-11-12T03:26:11.653Z,995.74
2018-11-12T03:27:08.265Z,995.69
2018-11-12T03:28:07.614Z,995.76
2018-11-12T03:29:12.897Z,995.74
2018-11-12T03:30:09.996Z,995.71
2018-11-12T03:31:11.792Z,995.76
2018-11-12T03:32:08.292Z,995.77
2018-11-12T03:33:07.138Z,995.77
2018-11-12T03:34:14.152Z,995.79
2018-11-12T03:35:17.767Z,995.79
2018-11-12T03:36:17.790Z,995.88
2018-11-12T03:37:15.165Z,995.82
2018-11-12T03:38:11.713Z,995.83
2018-11-12T03:39:11.715Z,995.82
2018-11-12T03:40:23.542Z,995.95
2018-11-12T03:41:23.613Z,995.92
2018-11-12T03:42:25.337Z,995.92
2018-11-12T03:43:29.627Z,995.76
2018-11-12T03:44:27.392Z,995.94
2018-11-12T03:45:29.045Z,995.89
2018-11-12T03:46:27.403Z,995.91
2018-11-12T03:47:24.790Z,995.91
2018-11-12T03:48:25.078Z,995.98
2018-11-12T03:49:23.724Z,996
2018-11-12T03:50:22.571Z,995.91
2018-11-12T03:51:21.395Z,996
2018-11-12T03:52:19.693Z,996.01
2018-11-12T03:53:18.682Z,996.04
2018-11-12T03:54:29.026Z,996.02
2018-11-12T03:55:27.760Z,996.05
2018-11-12T03:56:25.453Z,995.91
2018-11-12T03:57:31.994Z,995.89
2018-11-12T03:58:28.091Z,995.91
2018-11-12T03:59:27.598Z,995.92
2018-11-12T04:00:23.842Z,995.92
2018-11-12T04:01:24.211Z,995.94
2018-11-12T04:02:20.524Z,995.91
2018-11-12T04:03:22.626Z,995.97
2018-11-12T04:04:18.959Z,995.94
2018-11-12T04:05:16.991Z,995.91
2018-11-12T04:06:17.992Z,995.89
2018-11-12T04:07:22.288Z,995.91
2018-11-12T04:08:28.528Z,995.89
2018-11-12T04:09:34.567Z,995.85
2018-11-12T04:10:30.976Z,995.79
2018-11-12T04:11:28.258Z,995.89
2018-11-12T04:12:27.881Z,995.8
2018-11-12T04:13:29.013Z,995.77
2018-11-12T04:14:27.111Z,995.85
2018-11-12T04:15:26.063Z,995.8
2018-11-12T04:16:23.097Z,995.85
2018-11-12T04:17:21.344Z,995.83
2018-11-12T04:18:22.634Z,995.85
2018-11-12T04:19:20.593Z,995.94
2018-11-12T04:20:17.812Z,995.97
2018-11-12T04:21:14.932Z,995.97
2018-11-12T04:22:12.045Z,996.05
2018-11-12T04:23:10.388Z,996.01
2018-11-12T04:24:06.748Z,995.95
2018-11-12T04:25:06.158Z,995.89
2018-11-12T04:26:06.829Z,995.88
2018-11-12T04:27:07.227Z,995.91
2018-11-12T04:28:03.744Z,995.89
2018-11-12T04:29:02.544Z,995.85
2018-11-12T04:30:09.498Z,995.91
2018-11-12T04:31:07.017Z,995.79
2018-11-12T04:32:04.993Z,995.85
2018-11-12T04:33:02.801Z,995.85
2018-11-12T04:34:11.304Z,995.73
2018-11-12T04:35:12.166Z,995.73
2018-11-12T04:36:08.938Z,995.8
2018-11-12T04:37:08.185Z,995.64
2018-11-12T04:38:06.794Z,995.72
2018-11-12T04:39:05.242Z,995.8
2018-11-12T04:40:01.706Z,995.86
2018-11-12T04:40:58.547Z,995.8
2018-11-12T04:42:00.103Z,995.8
2018-11-12T04:43:01.196Z,995.83
2018-11-12T04:43:59.818Z,995.83
2018-11-12T04:44:57.762Z,995.8
2018-11-12T04:45:57.649Z,995.8
2018-11-12T04:46:54.699Z,995.8
2018-11-12T04:47:53.675Z,995.92
2018-11-12T04:48:50.408Z,995.89
2018-11-12T04:49:51.631Z,995.91
2018-11-12T04:50:48.783Z,995.91
2018-11-12T04:51:46.039Z,995.86
2018-11-12T04:52:44.457Z,995.86
2018-11-12T04:53:43.360Z,995.88
2018-11-12T04:54:40.622Z,995.82
2018-11-12T04:55:37.652Z,995.79
2018-11-12T04:56:34.997Z,995.73
2018-11-12T04:57:34.346Z,995.66
2018-11-12T04:58:30.466Z,995.7
2018-11-12T04:59:27.038Z,995.55
2018-11-12T05:00:23.601Z,995.7
2018-11-12T05:01:22.628Z,995.76
2018-11-12T05:02:19.002Z,995.81
2018-11-12T05:03:17.786Z,995.82
2018-11-12T05:04:13.988Z,995.72
2018-11-12T05:05:14.236Z,995.67
2018-11-12T05:06:20.185Z,995.67
2018-11-12T05:07:32.054Z,995.55
2018-11-12T05:08:35.040Z,995.55
2018-11-12T05:09:32.535Z,995.63
2018-11-12T05:10:28.458Z,995.67
2018-11-12T05:11:13.970Z,995.7
2018-11-12T05:12:10.895Z,995.78
2018-11-12T05:13:08.500Z,995.89
2018-11-12T05:14:07.731Z,995.85
2018-11-12T05:15:10.269Z,995.85
2018-11-12T05:16:06.387Z,995.85
2018-11-12T05:17:02.818Z,995.84
2018-11-12T05:18:02.153Z,995.83
2018-11-12T05:19:04.955Z,995.85
2018-11-12T05:20:04.499Z,995.73
2018-11-12T05:21:03.714Z,995.73
2018-11-12T05:22:02.048Z,995.7
2018-11-12T05:22:58.873Z,995.64
2018-11-12T05:23:57.868Z,995.72
2018-11-12T05:24:55.548Z,995.67
2018-11-12T05:25:52.393Z,995.7
2018-11-12T05:26:50.717Z,995.57
2018-11-12T05:27:48.334Z,995.63
2018-11-12T05:28:48.815Z,995.57
2018-11-12T05:29:45.390Z,995.6
2018-11-12T05:30:43.975Z,995.49
2018-11-12T05:31:47.549Z,995.52
2018-11-12T05:32:43.681Z,995.45
2018-11-12T05:33:43.956Z,995.51
2018-11-12T05:34:40.151Z,995.54
2018-11-12T05:35:43.574Z,995.51
2018-11-12T05:36:42.991Z,995.57
2018-11-12T05:37:41.356Z,995.69
2018-11-12T05:38:40.472Z,995.51
2018-11-12T05:39:38.286Z,995.55
2018-11-12T05:40:37.148Z,995.7
2018-11-12T05:41:34.199Z,995.67
2018-11-12T05:42:30.511Z,995.6
2018-11-12T05:43:27.308Z,995.6
2018-11-12T05:44:24.546Z,995.51
2018-11-12T05:45:21.499Z,995.54
2018-11-12T05:46:20.887Z,995.52
2018-11-12T05:47:20.527Z,995.52
2018-11-12T05:48:23.152Z,995.61
2018-11-12T05:49:23.121Z,995.6
2018-11-12T05:50:24.531Z,995.69
2018-11-12T05:51:22.034Z,995.63
2018-11-12T05:52:21.300Z,995.64
2018-11-12T05:53:19.035Z,995.67
2018-11-12T05:54:17.501Z,995.67
2018-11-12T05:55:13.933Z,995.66
2018-11-12T05:56:10.838Z,995.54
2018-11-12T05:57:07.216Z,995.61
2018-11-12T05:58:09.776Z,995.48
2018-11-12T05:59:10.506Z,995.49
2018-11-12T06:00:06.873Z,995.52
2018-11-12T06:01:04.989Z,995.54
2018-11-12T06:02:01.494Z,995.57
2018-11-12T06:02:59.964Z,995.6
2018-11-12T06:03:57.810Z,995.51
2018-11-12T06:04:55.123Z,995.55
2018-11-12T06:05:52.788Z,995.43
2018-11-12T06:06:49.145Z,995.49
2018-11-12T06:07:46.622Z,995.49
2018-11-12T06:08:43.215Z,995.57
2018-11-12T06:09:39.842Z,995.51
2018-11-12T06:10:36.472Z,995.63
2018-11-12T06:11:32.573Z,995.73
2018-11-12T06:12:33.678Z,995.64
2018-11-12T06:13:32.825Z,995.67
2018-11-12T06:14:40.614Z,995.75
2018-11-12T06:15:36.865Z,995.82
2018-11-12T06:16:33.936Z,995.79
2018-11-12T06:17:35.480Z,995.85
2018-11-12T06:18:32.849Z,995.81
2018-11-12T06:19:31.513Z,995.75
2018-11-12T06:20:34.825Z,995.76
2018-11-12T06:21:34.749Z,995.73
2018-11-12T06:22:32.792Z,995.73
2018-11-12T06:23:29.504Z,995.84
2018-11-12T06:24:27.359Z,995.88
2018-11-12T06:25:23.771Z,995.95
2018-11-12T06:26:26.534Z,995.92
2018-11-12T06:27:23.953Z,995.94
2018-11-12T06:28:29.001Z,995.91
2018-11-12T06:29:32.690Z,995.91
2018-11-12T06:30:30.018Z,995.95
2018-11-12T06:31:38.150Z,995.93
2018-11-12T06:32:35.733Z,996
2018-11-12T06:33:32.675Z,995.93
2018-11-12T06:34:32.310Z,995.9
2018-11-12T06:35:29.133Z,995.85
2018-11-12T06:36:27.504Z,995.75
2018-11-12T06:37:25.444Z,995.79
2018-11-12T06:38:21.714Z,995.88
2018-11-12T06:39:18.258Z,995.81
2018-11-12T06:40:17.691Z,995.98
2018-11-12T06:41:16.510Z,996.03
2018-11-12T06:42:13.717Z,996.01
2018-11-12T06:43:10.090Z,996.04
2018-11-12T06:44:13.365Z,996.1
2018-11-12T06:45:11.647Z,996.09
2018-11-12T06:46:08.801Z,996.15
2018-11-12T06:47:07.443Z,996.26
2018-11-12T06:48:05.883Z,996.31
2018-11-12T06:49:04.016Z,996.25
2018-11-12T06:50:03.544Z,996.22
2018-11-12T06:51:01.039Z,996.29
2018-11-12T06:51:59.294Z,996.22
2018-11-12T06:53:01.723Z,996.16
2018-11-12T06:54:05.407Z,996.19
2018-11-12T06:55:04.101Z,996.1
2018-11-12T06:56:02.990Z,996.15
2018-11-12T06:56:59.577Z,996.07
2018-11-12T06:58:07.391Z,996.18
2018-11-12T06:59:07.647Z,996.09
2018-11-12T07:00:05.767Z,996.03
2018-11-12T07:01:02.998Z,996.03
2018-11-12T07:02:01.846Z,996.1
2018-11-12T07:03:04.725Z,995.94
2018-11-12T07:04:04.962Z,995.98
2018-11-12T07:05:02.069Z,996
2018-11-12T07:05:59.324Z,996.07
2018-11-12T07:06:57.897Z,995.97
2018-11-12T07:07:58.071Z,996.01
2018-11-12T07:08:58.400Z,995.98
2018-11-12T07:09:55.838Z,996
2018-11-12T07:10:53.800Z,995.94
2018-11-12T07:11:56.856Z,995.97
2018-11-12T07:12:53.339Z,995.94
2018-11-12T07:13:50.551Z,995.82
2018-11-12T07:14:47.166Z,995.84
2018-11-12T07:15:46.335Z,995.82
2018-11-12T07:16:42.399Z,995.78
2018-11-12T07:17:38.871Z,995.82
2018-11-12T07:18:41.134Z,995.75
2018-11-12T07:19:37.241Z,995.79
2018-11-12T07:20:39.344Z,995.72
2018-11-12T07:21:44.206Z,995.82
2018-11-12T07:22:40.861Z,995.71
2018-11-12T07:23:44.605Z,995.69
2018-11-12T07:24:40.878Z,995.69
2018-11-12T07:25:46.386Z,995.69
2018-11-12T07:26:44.476Z,995.84
2018-11-12T07:27:41.494Z,995.75
2018-11-12T07:28:39.710Z,995.76
2018-11-12T07:29:37.755Z,995.72
2018-11-12T07:30:40.180Z,995.73
2018-11-12T07:31:44.224Z,995.69
2018-11-12T07:32:46.290Z,995.75
2018-11-12T07:33:44.731Z,995.77
2018-11-12T07:34:40.883Z,995.66
2018-11-12T07:35:37.018Z,995.53
2018-11-12T07:36:38.728Z,995.54
2018-11-12T07:37:40.186Z,995.65
2018-11-12T07:38:38.596Z,995.64
2018-11-12T07:39:38.825Z,995.54
2018-11-12T07:40:43.775Z,995.44
2018-11-12T07:41:44.304Z,995.4
2018-11-12T07:42:42.641Z,995.49
2018-11-12T07:43:41.232Z,995.56
2018-11-12T07:44:40.071Z,995.48
2018-11-12T07:45:37.510Z,995.48
2018-11-12T07:46:33.221Z,995.43
2018-11-12T07:47:29.406Z,995.51
2018-11-12T07:48:28.768Z,995.45
2018-11-12T07:49:25.483Z,995.42
2018-11-12T07:50:22.611Z,995.36
2018-11-12T07:51:20.406Z,995.36
2018-11-12T07:52:16.005Z,995.32
2018-11-12T07:53:12.011Z,995.32
2018-11-12T07:54:09.644Z,995.35
2018-11-12T07:55:06.450Z,995.31
2018-11-12T07:56:04.172Z,995.36
2018-11-12T07:57:02.187Z,995.44
2018-11-12T07:57:59.065Z,995.37
2018-11-12T07:58:59.126Z,995.4
2018-11-12T07:59:59.128Z,995.27
2018-11-12T08:00:53.975Z,995.33
2018-11-12T08:01:52.338Z,995.33
2018-11-12T08:02:51.585Z,995.35
2018-11-12T08:03:48.610Z,995.36
2018-11-12T08:04:50.355Z,995.42
2018-11-12T08:05:46.931Z,995.39
2018-11-12T08:06:41.928Z,995.42
2018-11-12T08:07:39.308Z,995.33
2018-11-12T08:08:35.962Z,995.45
2018-11-12T08:09:32.161Z,995.35
2018-11-12T08:10:27.114Z,995.38
2018-11-12T08:11:22.342Z,995.39
2018-11-12T08:12:20.871Z,995.29
2018-11-12T08:13:17.648Z,995.23
2018-11-12T08:14:17.756Z,995.29
2018-11-12T08:15:25.021Z,995.26
2018-11-12T08:16:26.736Z,995.28
2018-11-12T08:17:21.833Z,995.31
2018-11-12T08:18:16.971Z,995.44
2018-11-12T08:19:17.478Z,995.35
2018-11-12T08:20:14.143Z,995.4
2018-11-12T08:21:09.415Z,995.38
2018-11-12T08:22:10.642Z,995.4
2018-11-12T08:23:06.042Z,995.46
2018-11-12T08:24:01.036Z,995.4
2018-11-12T08:24:57.885Z,995.37
2018-11-12T08:26:02.790Z,995.37
2018-11-12T08:26:58.371Z,995.37
2018-11-12T08:28:02.314Z,995.37
2018-11-12T08:29:03.260Z,995.22
2018-11-12T08:29:58.558Z,995.27
2018-11-12T08:30:53.340Z,995.17
2018-11-12T08:31:50.738Z,995.05
2018-11-12T08:32:45.936Z,995.12
2018-11-12T08:33:43.841Z,995.11
2018-11-12T08:34:42.074Z,995.14
2018-11-12T08:35:36.846Z,995.18
2018-11-12T08:36:33.677Z,995.08
2018-11-12T08:37:33.517Z,995.02
2018-11-12T08:38:34.984Z,994.92
2018-11-12T08:39:30.431Z,994.99
2018-11-12T08:40:25.567Z,994.92
2018-11-12T08:41:28.650Z,994.82
2018-11-12T08:42:23.515Z,994.87
2018-11-12T08:43:21.863Z,994.93
2018-11-12T08:44:20.899Z,994.93
2018-11-12T08:45:21.860Z,994.87
2018-11-12T08:46:18.271Z,994.93
2018-11-12T08:47:27.979Z,994.88
2018-11-12T08:48:25.850Z,994.88
2018-11-12T08:49:20.716Z,994.91
2018-11-12T08:50:31.060Z,994.95
2018-11-12T08:51:29.946Z,994.78
2018-11-12T08:52:30.650Z,994.94
2018-11-12T08:53:31.028Z,995
2018-11-12T08:54:29.857Z,994.95
2018-11-12T08:55:25.812Z,995.04
2018-11-12T08:56:23.906Z,995.02
2018-11-12T08:57:24.964Z,994.95
2018-11-12T08:58:20.741Z,995.02
2018-11-12T08:59:16.742Z,995.02
2018-11-12T09:00:14.651Z,995.08
2018-11-12T09:01:10.956Z,995.06
2018-11-12T09:02:09.257Z,994.99
2018-11-12T09:03:04.697Z,994.99
2018-11-12T09:04:00.721Z,994.98
2018-11-12T09:04:56.703Z,994.95
2018-11-12T09:06:04.531Z,995.04
2018-11-12T09:06:59.852Z,994.97
2018-11-12T09:07:55.979Z,994.94
2018-11-12T09:08:52.364Z,994.95
2018-11-12T09:09:59.058Z,994.95
2018-11-12T09:10:54.989Z,994.83
2018-11-12T09:11:51.990Z,994.9
2018-11-12T09:12:47.907Z,994.82
2018-11-12T09:13:45.248Z,994.77
2018-11-12T09:14:42.532Z,994.79
2018-11-12T09:15:45.056Z,994.83
2018-11-12T09:16:43.119Z,994.89
2018-11-12T09:17:40.142Z,994.9
2018-11-12T09:18:42.275Z,994.94
2018-11-12T09:19:40.579Z,994.93
2018-11-12T09:20:38.138Z,995
2018-11-12T09:21:40.789Z,994.97
2018-11-12T09:22:36.960Z,994.96
2018-11-12T09:23:33.771Z,995
2018-11-12T09:24:30.329Z,994.93
2018-11-12T09:25:26.920Z,994.9
2018-11-12T09:26:25.173Z,994.95
2018-11-12T09:27:23.751Z,994.92
2018-11-12T09:28:23.349Z,994.97
2018-11-12T09:29:20.610Z,994.98
2018-11-12T09:30:24.881Z,995.1
2018-11-12T09:31:22.052Z,995.02
2018-11-12T09:32:17.753Z,994.99
2018-11-12T09:33:19.154Z,995.01
2018-11-12T09:34:20.444Z,995.04
2018-11-12T09:35:22.198Z,995.02
2018-11-12T09:36:18.461Z,995.04
2018-11-12T09:37:32.842Z,994.99
2018-11-12T09:38:34.569Z,995.04
2018-11-12T09:39:34.344Z,994.96
2018-11-12T09:40:32.574Z,995.01
2018-11-12T09:41:30.090Z,994.89
2018-11-12T09:42:28.277Z,994.89
2018-11-12T09:43:27.654Z,994.92
2018-11-12T09:44:23.943Z,994.9
2018-11-12T09:45:32.166Z,994.86
2018-11-12T09:46:35.719Z,994.91
2018-11-12T09:47:34.380Z,994.9
2018-11-12T09:49:05.361Z,994.85
2018-11-12T09:50:05.048Z,994.82
2018-11-12T09:51:13.040Z,994.87
2018-11-12T09:52:10.504Z,994.84
2018-11-12T09:53:10.449Z,994.91
2018-11-12T09:54:11.987Z,994.91
2018-11-12T09:55:21.723Z,994.98
2018-11-12T09:56:23.444Z,994.84
2018-11-12T09:57:27.157Z,994.94
2018-11-12T09:58:30.188Z,994.92
2018-11-12T09:59:32.813Z,995
2018-11-12T10:00:30.093Z,994.98
2018-11-12T10:01:28.755Z,994.88
2018-11-12T10:02:26.732Z,994.91
2018-11-12T10:03:24.655Z,994.95
2018-11-12T10:04:23.552Z,994.88
2018-11-12T10:05:23.415Z,994.95
2018-11-12T10:06:29.537Z,994.92
2018-11-12T10:07:33.856Z,994.88
2018-11-12T10:08:32.095Z,994.95
2018-11-12T10:09:30.476Z,994.83
2018-11-12T10:10:29.296Z,994.89
2018-11-12T10:11:27.690Z,995.01
2018-11-12T10:11:33.857Z,995.01
2018-11-12T10:11:37.301Z,995.01
2018-11-12T10:12:32.023Z,994.95
2018-11-12T10:13:33.571Z,994.92
2018-11-12T10:14:33.989Z,994.95
2018-11-12T10:15:32.513Z,994.98
2018-11-12T10:15:36.858Z,994.98
2018-11-12T10:16:38.291Z,994.89
2018-11-12T10:16:42.464Z,994.89
2018-11-12T10:17:34.681Z,994.93
2018-11-12T10:18:33.145Z,994.99
2018-11-12T10:19:41.525Z,995.02
2018-11-12T10:20:47.112Z,995.05
2018-11-12T10:21:47.654Z,994.92
2018-11-12T10:22:46.923Z,995
2018-11-12T10:23:44.389Z,995.08
2018-11-12T10:24:44.325Z,995
2018-11-12T10:25:43.831Z,995
2018-11-12T10:26:41.165Z,995.05
2018-11-12T10:27:43.686Z,995.05
2018-11-12T10:28:46.686Z,995.06
2018-11-12T10:29:50.772Z,995.15
2018-11-12T10:30:49.179Z,995.11
2018-11-12T10:31:49.469Z,995.15
2018-11-12T10:32:50.380Z,995.14
2018-11-12T10:34:05.516Z,995.09
2018-11-12T10:35:05.662Z,995.18
2018-11-12T10:36:07.743Z,995.24
2018-11-12T10:37:06.620Z,995.2
2018-11-12T10:38:04.993Z,995.15
2018-11-12T10:39:03.320Z,995.17
2018-11-12T10:40:01.269Z,995.09
2018-11-12T10:40:59.802Z,995.02
2018-11-12T10:41:57.348Z,995.05
2018-11-12T10:42:59.290Z,995.02
2018-11-12T10:44:06.171Z,995.15
2018-11-12T10:45:05.004Z,995.05
2018-11-12T10:46:06.412Z,995.09
2018-11-12T10:47:06.271Z,995.05
2018-11-12T10:48:04.770Z,995.12
2018-11-12T10:49:02.082Z,995.14
2018-11-12T10:50:00.844Z,995.17
2018-11-12T10:51:05.032Z,995.18
2018-11-12T10:51:05.251Z,995.18
2018-11-12T10:52:03.072Z,995.17
2018-11-12T10:53:01.386Z,995.09
2018-11-12T10:54:03.005Z,995.18
2018-11-12T10:55:10.757Z,995.26
2018-11-12T10:56:11.957Z,995.24
2018-11-12T10:57:14.143Z,995.12
2018-11-12T10:58:12.720Z,995.2
2018-11-12T10:59:13.547Z,995.18
2018-11-12T11:00:10.799Z,995.15
2018-11-12T11:01:10.120Z,995.2
2018-11-12T11:02:08.675Z,995.17
2018-11-12T11:03:10.065Z,995.15
2018-11-12T11:04:08.911Z,995.18
2018-11-12T11:05:11.220Z,995.21
2018-11-12T11:06:13.663Z,995.23
2018-11-12T11:07:12.847Z,995.18
2018-11-12T11:08:12.284Z,995.21
2018-11-12T11:09:13.239Z,995.18
2018-11-12T11:10:12.453Z,995.26
2018-11-12T11:11:13.238Z,995.27
2018-11-12T11:12:10.524Z,995.14
2018-11-12T11:13:08.140Z,995.27
2018-11-12T11:14:06.113Z,995.17
2018-11-12T11:15:07.055Z,995.18
2018-11-12T11:16:05.318Z,995.17
2018-11-12T11:17:09.189Z,995.21
2018-11-12T11:18:08.336Z,995.17
2018-11-12T11:19:09.683Z,995.27
2018-11-12T11:20:07.448Z,995.24
2018-11-12T11:21:04.650Z,995.26
2018-11-12T11:22:02.264Z,995.31
2018-11-12T11:23:03.181Z,995.34
2018-11-12T11:24:08.195Z,995.24
2018-11-12T11:25:08.628Z,995.17
2018-11-12T11:26:06.396Z,995.21
2018-11-12T11:27:05.902Z,995.26
2018-11-12T11:28:03.655Z,995.18
2018-11-12T11:29:02.738Z,995.21
2018-11-12T11:30:09.012Z,995.15
2018-11-12T11:31:06.381Z,995.09
2018-11-12T11:32:04.083Z,995.09
2018-11-12T11:33:03.289Z,995.17
2018-11-12T11:34:03.591Z,995.18
2018-11-12T11:35:01.199Z,995.15
2018-11-12T11:36:00.881Z,995.08
2018-11-12T11:36:58.918Z,995.18
2018-11-12T11:37:56.407Z,995.2
2018-11-12T11:38:57.316Z,995.14
2018-11-12T11:39:55.975Z,995.27
2018-11-12T11:40:54.950Z,995.26
2018-11-12T11:41:59.569Z,995.31
2018-11-12T11:43:01.622Z,995.24
2018-11-12T11:44:00.691Z,995.24
2018-11-12T11:44:59.054Z,995.26
2018-11-12T11:46:00.547Z,995.21
2018-11-12T11:46:58.320Z,995.18
2018-11-12T11:47:58.716Z,995.17
2018-11-12T11:48:14.198Z,995.11
2018-11-12T11:49:16.356Z,995.02
2018-11-12T11:50:15.554Z,995.08
2018-11-12T11:51:13.978Z,995.06
2018-11-12T11:52:11.263Z,995.09
2018-11-12T11:53:09.771Z,995.02
2018-11-12T11:55:43.663Z,995.06
2018-11-12T11:56:37.928Z,995.15
2018-11-12T11:57:37.375Z,995.15
2018-11-12T11:58:34.874Z,995.09
2018-11-12T11:59:31.902Z,995.11
2018-11-12T12:00:29.911Z,995.17
2018-11-12T12:01:30.491Z,995.15
2018-11-12T12:02:28.340Z,995.24
2018-11-12T12:03:28.353Z,995.21
2018-11-12T12:04:31.918Z,995.21
2018-11-12T12:05:30.497Z,995.12
2018-11-12T12:06:27.567Z,995.11
2018-11-12T12:07:25.520Z,995.18
2018-11-12T12:08:27.464Z,995.15
2018-11-12T12:09:26.899Z,995.18
2018-11-12T12:10:27.054Z,995.09
2018-11-12T12:11:25.882Z,995.12
2018-11-12T12:12:24.869Z,995.3
2018-11-12T12:13:24.417Z,995.27
2018-11-12T12:14:28.453Z,995.29
2018-11-12T12:15:26.214Z,995.29
2018-11-12T12:16:24.386Z,995.27
2018-11-12T12:17:26.110Z,995.39
2018-11-12T12:18:27.045Z,995.42
2018-11-12T12:19:42.520Z,995.39
2018-11-12T12:20:44.558Z,995.49